地図

経路データ

SID SEASON NUMBER BASIN SUBBASIN NAME ISO_TIME NATURE LAT LON WMO_WIND WMO_PRES WMO_AGENCY TRACK_TYPE DIST2LAND LANDFALL IFLAG USA_AGENCY USA_ATCF_ID USA_LAT USA_LON USA_RECORD USA_STATUS USA_WIND USA_PRES USA_SSHS USA_R34_NE USA_R34_SE USA_R34_SW USA_R34_NW USA_R50_NE USA_R50_SE USA_R50_SW USA_R50_NW USA_R64_NE USA_R64_SE USA_R64_SW USA_R64_NW USA_POCI USA_ROCI USA_RMW USA_EYE TOKYO_LAT TOKYO_LON TOKYO_GRADE TOKYO_WIND TOKYO_PRES TOKYO_R50_DIR TOKYO_R50_LONG TOKYO_R50_SHORT TOKYO_R30_DIR TOKYO_R30_LONG TOKYO_R30_SHORT TOKYO_LAND CMA_LAT CMA_LON CMA_CAT CMA_WIND CMA_PRES HKO_LAT HKO_LON HKO_CAT HKO_WIND HKO_PRES NEWDELHI_LAT NEWDELHI_LON NEWDELHI_GRADE NEWDELHI_WIND NEWDELHI_PRES NEWDELHI_CI NEWDELHI_DP NEWDELHI_POCI REUNION_LAT REUNION_LON REUNION_TYPE REUNION_WIND REUNION_PRES REUNION_TNUM REUNION_CI REUNION_RMW REUNION_R34_NE REUNION_R34_SE REUNION_R34_SW REUNION_R34_NW REUNION_R50_NE REUNION_R50_SE REUNION_R50_SW REUNION_R50_NW REUNION_R64_NE REUNION_R64_SE REUNION_R64_SW REUNION_R64_NW BOM_LAT BOM_LON BOM_TYPE BOM_WIND BOM_PRES BOM_TNUM BOM_CI BOM_RMW BOM_R34_NE BOM_R34_SE BOM_R34_SW BOM_R34_NW BOM_R50_NE BOM_R50_SE BOM_R50_SW BOM_R50_NW BOM_R64_NE BOM_R64_SE BOM_R64_SW BOM_R64_NW BOM_ROCI BOM_POCI BOM_EYE BOM_POS_METHOD BOM_PRES_METHOD NADI_LAT NADI_LON NADI_CAT NADI_WIND NADI_PRES WELLINGTON_LAT WELLINGTON_LON WELLINGTON_WIND WELLINGTON_PRES DS824_LAT DS824_LON DS824_STAGE DS824_WIND DS824_PRES TD9636_LAT TD9636_LON TD9636_STAGE TD9636_WIND TD9636_PRES TD9635_LAT TD9635_LON TD9635_WIND TD9635_PRES TD9635_ROCI NEUMANN_LAT NEUMANN_LON NEUMANN_CLASS NEUMANN_WIND NEUMANN_PRES MLC_LAT MLC_LON MLC_CLASS MLC_WIND MLC_PRES USA_GUST BOM_GUST BOM_GUST_PER REUNION_GUST REUNION_GUST_PER USA_SEAHGT USA_SEARAD_NE USA_SEARAD_SE USA_SEARAD_SW USA_SEARAD_NW STORM_SPEED STORM_DIR
1980210N17251 1980 55 EP MM GEORGETTE 1980-07-28 06:00:00 TS 16.8000 -109.000 25 hurdat_epa main 507 507 O________OO___ hurdat_epa EP071980 16.8000 -109.000 TD 25 -1 16.8000 -109.000 TC 25 16.8000 -109.000 1 25 10 285
1980210N17251 1980 55 EP MM GEORGETTE 1980-07-28 09:00:00 TS 16.9318 -109.498 main 542 542 P________PP___ EP071980 16.9302 -109.497 TD 25 -1 16.9302 -109.497 TC 25 16.9383 -109.502 1 25 10 287
1980210N17251 1980 55 EP MM GEORGETTE 1980-07-28 12:00:00 TS 17.1000 -110.000 25 hurdat_epa main 574 574 O________OO___ hurdat_epa EP071980 17.1000 -110.000 TD 25 -1 17.1000 -110.000 TC 25 17.1000 -110.000 1 25 10 292
1980210N17251 1980 55 EP MM GEORGETTE 1980-07-28 15:00:00 TS 17.3287 -110.504 main 607 600 P________PP___ EP071980 17.3349 -110.507 TD 27 -1 17.3349 -110.507 TC 27 17.3038 -110.492 1 27 11 297
1980210N17251 1980 55 EP MM GEORGETTE 1980-07-28 18:00:00 TS 17.5890 -110.995 30 hurdat_epa main 601 586 O________OP___ hurdat_epa EP071980 17.6000 -111.000 TD 30 -1 17.6000 -111.000 TC 30 17.5452 -110.974 1 30 10 300
1980210N17251 1980 55 EP MM GEORGETTE 1980-07-28 21:00:00 TS 17.8427 -111.455 main 591 568 P________PP___ EP071980 17.8498 -111.458 TD 32 -1 17.8498 -111.458 TC 32 17.8140 -111.444 1 32 10 301
1980210N17251 1980 55 EP MM GEORGETTE 1980-07-29 00:00:00 TS 18.1000 -111.900 35 hurdat_epa main 572 563 O________OO___ hurdat_epa EP071980 18.1000 -111.900 TS 35 0 18.1000 -111.900 TC 35 18.1000 -111.900 2 35 10 301
1980210N17251 1980 55 EP MM GEORGETTE 1980-07-29 03:00:00 TS 18.3451 -112.353 main 571 556 P________PP___ EP071980 18.3349 -112.358 TS 37 0 18.3349 -112.358 TC 37 18.3859 -112.333 2 36 10 301
1980210N17251 1980 55 EP MM GEORGETTE 1980-07-29 06:00:00 TS 18.6172 -112.791 40 hurdat_epa main 562 551 O________OP___ hurdat_epa EP071980 18.6000 -112.800 TS 40 0 18.6000 -112.800 TC 40 18.6858 -112.754 2 37 10 307
1980210N17251 1980 55 EP MM GEORGETTE 1980-07-29 09:00:00 TS 18.9524 -113.195 main 548 543 P________PP___ EP071980 18.9423 -113.200 TS 40 0 18.9423 -113.200 TC 40 18.9928 -113.172 2 38 10 312
1980210N17251 1980 55 EP MM GEORGETTE 1980-07-29 12:00:00 TS 19.3000 -113.600 40 hurdat_epa main 549 547 O________OO___ hurdat_epa EP071980 19.3000 -113.600 TS 40 0 19.3000 -113.600 TC 40 19.3000 -113.600 2 40 10 309
1980210N17251 1980 55 EP MM GEORGETTE 1980-07-29 15:00:00 TS 19.6059 -114.036 main 554 554 P________PP___ EP071980 19.6074 -114.035 TS 52 0 19.6074 -114.035 TC 52 19.5998 -114.040 2 52 10 305
1980210N17251 1980 55 EP MM GEORGETTE 1980-07-29 18:00:00 TS 19.9000 -114.500 65 hurdat_epa main 573 573 O________OO___ hurdat_epa EP071980 19.9000 -114.500 HU 65 1 19.9000 -114.500 TC 65 19.9000 -114.500 3 65 10 300
1980210N17251 1980 55 EP MM GEORGETTE 1980-07-29 21:00:00 TS 20.1169 -114.973 main 591 584 P________PP___ EP071980 20.1022 -114.972 HU 60 0 20.1022 -114.972 TC 60 20.1753 -114.980 3 60 11 303
1980210N17251 1980 55 EP MM GEORGETTE 1980-07-30 00:00:00 TS 20.5000 -115.500 55 hurdat_epa main 584 550 O________OO___ hurdat_epa EP071980 20.5000 -115.500 TS 55 0 20.5000 -115.500 TC 55 20.5000 -115.500 2 55 17 320
1980210N17251 1980 55 EP MM GEORGETTE 1980-07-30 03:00:00 TS 21.3883 -116.121 main 550 538 P________PP___ EP071980 21.4726 -116.133 TS 52 0 21.4726 -116.133 TC 52 21.0509 -116.076 2 52 21 326
1980210N17251 1980 55 EP MM GEORGETTE 1980-07-30 06:00:00 TS 22.2591 -116.780 50 hurdat_epa main 545 545 O________OP___ hurdat_epa EP071980 22.4000 -116.800 TS 50 0 22.4000 -116.800 TC 50 21.6956 -116.700 2 50 17 316
1980210N17251 1980 55 EP MM GEORGETTE 1980-07-30 09:00:00 TS 22.6181 -117.391 main 583 583 P________PP___ EP071980 22.6995 -117.401 TS 47 0 22.6995 -117.401 TC 47 22.2924 -117.349 2 47 12 291
1980210N17251 1980 55 EP MM GEORGETTE 1980-07-30 12:00:00 TS 22.7000 -118.000 45 hurdat_epa main 619 619 O________OO___ hurdat_epa EP071980 22.7000 -118.000 TS 45 0 22.7000 -118.000 TC 45 22.7000 -118.000 2 45 12 274
1980210N17251 1980 55 EP MM GEORGETTE 1980-07-30 15:00:00 TS 22.7091 -118.648 main 657 657 P________PP___ EP071980 22.7175 -118.657 TS 42 0 22.7175 -118.657 TC 42 22.6756 -118.609 2 41 12 264
1980210N17251 1980 55 EP MM GEORGETTE 1980-07-30 18:00:00 TS 22.5722 -119.282 40 hurdat_epa main 712 712 O________OP___ hurdat_epa EP071980 22.6000 -119.300 TS 40 0 22.6000 -119.300 TC 40 22.4612 -119.208 2 37 12 247
1980210N17251 1980 55 EP MM GEORGETTE 1980-07-30 21:00:00 TS 22.2479 -119.841 main 780 780 P________PP___ EP071980 22.2620 -119.851 TS 35 0 22.2620 -119.851 TC 35 22.1913 -119.802 2 33 12 241
1980210N17251 1980 55 EP MM GEORGETTE 1980-07-31 00:00:00 TS 22.0000 -120.400 30 hurdat_epa main 837 837 O________OO___ hurdat_epa EP071980 22.0000 -120.400 TD 30 -1 22.0000 -120.400 TC 30 22.0000 -120.400 1 30 11 264
1980210N17251 1980 55 EP MM GEORGETTE 1980-07-31 03:00:00 TS 22.1318 -121.035 main 869 868 P________PP___ EP071980 22.1325 -121.042 TD 30 -1 22.1325 -121.042 TC 30 22.1288 -121.010 1 30 13 288
1980210N17251 1980 55 EP MM GEORGETTE 1980-07-31 06:00:00 TS 22.3892 -121.686 30 hurdat_epa main 897 897 O________OP___ hurdat_epa EP071980 22.4000 -121.700 TD 30 -1 22.4000 -121.700 TC 30 22.3458 -121.629 1 30 12 291
1980210N17251 1980 55 EP MM GEORGETTE 1980-07-31 09:00:00 TS 22.5827 -122.292 main 929 929 P________PP___ EP071980 22.5871 -122.300 TD 30 -1 22.5871 -122.300 TC 30 22.5649 -122.259 1 30 12 285
1980210N17251 1980 55 EP MM GEORGETTE 1980-07-31 12:00:00 TS 22.7000 -122.900 30 hurdat_epa main 970 970 O________OO___ hurdat_epa EP071980 22.7000 -122.900 TD 30 -1 22.7000 -122.900 TC 30 22.7000 -122.900 1 30 12 275
1980210N17251 1980 55 EP MM GEORGETTE 1980-07-31 15:00:00 TS 22.6892 -123.540 main 1020 1020 P________PP___ EP071980 22.6882 -123.538 TD 27 -1 22.6882 -123.538 TC 27 22.6932 -123.548 1 27 12 265
1980210N17251 1980 55 EP MM GEORGETTE 1980-07-31 18:00:00 TS 22.6000 -124.200 25 hurdat_epa main 1086 O________OO___ hurdat_epa EP071980 22.6000 -124.200 TD 25 -1 22.6000 -124.200 TC 25 22.6000 -124.200 1 25 12 262

IBTrACS Databaseについて

本データベースは、米国NOAAが公開する1842年以降の世界の熱帯低気圧のベストトラックデータアーカイブInternational Best Track Archive for Climate Stewardship (IBTrACS)を、ウェブで閲覧しやすい形式に変換したものです。

最終更新日:2021-10-21